sensor_id;sensor_type;location;lat;lon;timestamp;pressure;altitude;pressure_sealevel;temperature;humidity
76694;BME280;69667;52.136;5.424;2023-06-22T00:01:20;102006.31;;;18.32;79.22
76694;BME280;69667;52.136;5.424;2023-06-22T00:03:48;101996.50;;;18.30;78.56
76694;BME280;69667;52.136;5.424;2023-06-22T00:06:15;101993.16;;;18.26;79.44
76694;BME280;69667;52.136;5.424;2023-06-22T00:08:42;101997.44;;;18.19;79.83
76694;BME280;69667;52.136;5.424;2023-06-22T00:11:09;102003.47;;;18.13;80.01
76694;BME280;69667;52.136;5.424;2023-06-22T00:13:35;101999.84;;;18.13;79.90
76694;BME280;69667;52.136;5.424;2023-06-22T00:16:02;102001.28;;;18.07;80.58
76694;BME280;69667;52.136;5.424;2023-06-22T00:18:29;101995.50;;;18.01;80.75
76694;BME280;69667;52.136;5.424;2023-06-22T00:20:57;101995.03;;;17.96;81.34
76694;BME280;69667;52.136;5.424;2023-06-22T00:23:25;101991.56;;;17.94;81.37
76694;BME280;69667;52.136;5.424;2023-06-22T00:25:52;101999.16;;;17.90;81.39
76694;BME280;69667;52.136;5.424;2023-06-22T00:28:19;101997.81;;;17.85;81.54
76694;BME280;69667;52.136;5.424;2023-06-22T00:30:46;101992.50;;;17.83;81.65
76694;BME280;69667;52.136;5.424;2023-06-22T00:33:14;101989.75;;;17.83;81.68
76694;BME280;69667;52.136;5.424;2023-06-22T00:35:43;101977.25;;;17.81;81.78
76694;BME280;69667;52.136;5.424;2023-06-22T00:38:10;101979.66;;;17.74;81.73
76694;BME280;69667;52.136;5.424;2023-06-22T00:40:37;101982.91;;;17.68;82.35
76694;BME280;69667;52.136;5.424;2023-06-22T00:43:05;101973.84;;;17.67;82.22
76694;BME280;69667;52.136;5.424;2023-06-22T00:45:32;101973.97;;;17.66;82.40
76694;BME280;69667;52.136;5.424;2023-06-22T00:48:02;101972.06;;;17.57;82.41
76694;BME280;69667;52.136;5.424;2023-06-22T00:50:32;101975.06;;;17.54;82.70
76694;BME280;69667;52.136;5.424;2023-06-22T00:53:08;101973.56;;;17.50;82.80
76694;BME280;69667;52.136;5.424;2023-06-22T00:55:41;101971.34;;;17.44;83.02
76694;BME280;69667;52.136;5.424;2023-06-22T00:58:11;101975.19;;;17.41;83.34
76694;BME280;69667;52.136;5.424;2023-06-22T01:00:38;101974.47;;;17.39;83.27
76694;BME280;69667;52.136;5.424;2023-06-22T01:03:05;101971.84;;;17.38;83.22
76694;BME280;69667;52.136;5.424;2023-06-22T01:05:36;101964.94;;;17.34;83.07
76694;BME280;69667;52.136;5.424;2023-06-22T01:08:19;101962.59;;;17.29;83.28
76694;BME280;69667;52.136;5.424;2023-06-22T01:16:25;101978.94;;;17.09;83.31
76694;BME280;69667;52.136;5.424;2023-06-22T01:18:55;101987.38;;;17.06;84.12
76694;BME280;69667;52.136;5.424;2023-06-22T01:21:24;101991.09;;;17.05;84.22
76694;BME280;69667;52.136;5.424;2023-06-22T01:24:18;101983.94;;;17.04;83.95
76694;BME280;69667;52.136;5.424;2023-06-22T01:29:22;101968.41;;;17.04;83.98
76694;BME280;69667;52.136;5.424;2023-06-22T01:31:51;101968.78;;;17.00;84.31
76694;BME280;69667;52.136;5.424;2023-06-22T01:34:21;101971.91;;;16.95;84.45
76694;BME280;69667;52.136;5.424;2023-06-22T01:36:48;101976.00;;;16.90;84.64
76694;BME280;69667;52.136;5.424;2023-06-22T01:39:16;101974.53;;;16.86;84.64
76694;BME280;69667;52.136;5.424;2023-06-22T01:41:44;101971.22;;;16.82;84.46
76694;BME280;69667;52.136;5.424;2023-06-22T01:44:12;101975.94;;;16.80;84.31
76694;BME280;69667;52.136;5.424;2023-06-22T01:46:41;101974.69;;;16.73;84.56
76694;BME280;69667;52.136;5.424;2023-06-22T01:49:08;101971.34;;;16.70;84.73
76694;BME280;69667;52.136;5.424;2023-06-22T01:51:35;101977.94;;;16.67;84.65
76694;BME280;69667;52.136;5.424;2023-06-22T01:54:02;101969.16;;;16.64;84.48
76694;BME280;69667;52.136;5.424;2023-06-22T01:56:29;101972.34;;;16.58;84.92
76694;BME280;69667;52.136;5.424;2023-06-22T01:59:05;101975.22;;;16.56;84.93
76694;BME280;69667;52.136;5.424;2023-06-22T02:01:42;101974.38;;;16.56;85.04
76694;BME280;69667;52.136;5.424;2023-06-22T02:04:19;101974.59;;;16.53;84.72
76694;BME280;69667;52.136;5.424;2023-06-22T02:06:50;101969.41;;;16.50;84.83
76694;BME280;69667;52.136;5.424;2023-06-22T02:09:22;101960.69;;;16.44;84.93
76694;BME280;69667;52.136;5.424;2023-06-22T02:11:50;101963.06;;;16.38;84.56
76694;BME280;69667;52.136;5.424;2023-06-22T02:14:22;101956.88;;;16.36;85.46
76694;BME280;69667;52.136;5.424;2023-06-22T02:16:51;101963.44;;;16.33;85.63
76694;BME280;69667;52.136;5.424;2023-06-22T02:19:22;101959.97;;;16.31;85.85
76694;BME280;69667;52.136;5.424;2023-06-22T02:21:49;101956.38;;;16.31;85.98
76694;BME280;69667;52.136;5.424;2023-06-22T02:24:16;101960.72;;;16.33;85.41
76694;BME280;69667;52.136;5.424;2023-06-22T02:26:43;101956.38;;;16.31;85.55
76694;BME280;69667;52.136;5.424;2023-06-22T02:29:15;101950.09;;;16.30;85.59
76694;BME280;69667;52.136;5.424;2023-06-22T02:31:42;101952.19;;;16.27;85.65
76694;BME280;69667;52.136;5.424;2023-06-22T02:34:09;101946.25;;;16.22;85.92
76694;BME280;69667;52.136;5.424;2023-06-22T02:36:36;101952.03;;;16.17;86.07
76694;BME280;69667;52.136;5.424;2023-06-22T02:39:03;101949.56;;;16.14;86.52
76694;BME280;69667;52.136;5.424;2023-06-22T02:41:30;101953.56;;;16.10;86.02
76694;BME280;69667;52.136;5.424;2023-06-22T02:43:57;101958.25;;;16.08;86.38
76694;BME280;69667;52.136;5.424;2023-06-22T02:46:24;101957.38;;;16.08;86.58
76694;BME280;69667;52.136;5.424;2023-06-22T02:48:52;101962.81;;;16.08;86.56
76694;BME280;69667;52.136;5.424;2023-06-22T02:51:18;101951.19;;;16.06;86.54
76694;BME280;69667;52.136;5.424;2023-06-22T02:53:45;101945.00;;;16.04;86.53
76694;BME280;69667;52.136;5.424;2023-06-22T02:56:15;101954.41;;;16.00;86.79
76694;BME280;69667;52.136;5.424;2023-06-22T02:58:42;101950.19;;;15.96;87.06
76694;BME280;69667;52.136;5.424;2023-06-22T03:01:11;101948.59;;;15.93;87.24
76694;BME280;69667;52.136;5.424;2023-06-22T03:03:41;101952.06;;;15.95;86.86
76694;BME280;69667;52.136;5.424;2023-06-22T03:06:09;101950.56;;;15.91;87.44
76694;BME280;69667;52.136;5.424;2023-06-22T03:08:40;101947.97;;;15.90;87.06
76694;BME280;69667;52.136;5.424;2023-06-22T03:11:08;101953.28;;;15.91;87.36
76694;BME280;69667;52.136;5.424;2023-06-22T03:13:35;101952.66;;;15.88;87.37
76694;BME280;69667;52.136;5.424;2023-06-22T03:16:02;101960.81;;;15.88;87.41
76694;BME280;69667;52.136;5.424;2023-06-22T03:18:29;101958.09;;;15.88;87.61
76694;BME280;69667;52.136;5.424;2023-06-22T03:20:56;101951.19;;;15.84;87.71
76694;BME280;69667;52.136;5.424;2023-06-22T03:23:23;101952.28;;;15.81;87.84
76694;BME280;69667;52.136;5.424;2023-06-22T03:25:50;101956.50;;;15.85;87.84
76694;BME280;69667;52.136;5.424;2023-06-22T03:28:17;101953.66;;;15.87;87.73
76694;BME280;69667;52.136;5.424;2023-06-22T03:30:44;101948.97;;;15.89;87.38
76694;BME280;69667;52.136;5.424;2023-06-22T03:33:11;101935.09;;;15.92;87.81
76694;BME280;69667;52.136;5.424;2023-06-22T03:35:37;101935.94;;;15.92;87.61
76694;BME280;69667;52.136;5.424;2023-06-22T03:38:05;101938.44;;;15.95;87.60
76694;BME280;69667;52.136;5.424;2023-06-22T03:40:33;101931.38;;;15.93;87.68
76694;BME280;69667;52.136;5.424;2023-06-22T03:43:00;101931.13;;;15.96;87.56
76694;BME280;69667;52.136;5.424;2023-06-22T03:45:28;101934.72;;;15.96;87.58
76694;BME280;69667;52.136;5.424;2023-06-22T03:47:57;101934.72;;;15.96;87.83
76694;BME280;69667;52.136;5.424;2023-06-22T03:50:26;101930.66;;;16.02;88.02
76694;BME280;69667;52.136;5.424;2023-06-22T03:52:53;101931.97;;;16.07;87.97
76694;BME280;69667;52.136;5.424;2023-06-22T03:55:20;101926.31;;;16.10;87.84
76694;BME280;69667;52.136;5.424;2023-06-22T03:57:47;101924.19;;;16.14;87.74
76694;BME280;69667;52.136;5.424;2023-06-22T04:00:16;101930.50;;;16.14;87.61
76694;BME280;69667;52.136;5.424;2023-06-22T04:02:45;101930.63;;;16.13;87.62
76694;BME280;69667;52.136;5.424;2023-06-22T04:05:12;101930.50;;;16.14;88.13
76694;BME280;69667;52.136;5.424;2023-06-22T04:07:40;101925.69;;;16.18;87.46
76694;BME280;69667;52.136;5.424;2023-06-22T04:10:09;101921.84;;;16.20;87.80
76694;BME280;69667;52.136;5.424;2023-06-22T04:12:38;101924.06;;;16.26;87.67
76694;BME280;69667;52.136;5.424;2023-06-22T04:15:06;101915.63;;;16.29;87.75
76694;BME280;69667;52.136;5.424;2023-06-22T04:17:35;101909.78;;;16.34;87.59
76694;BME280;69667;52.136;5.424;2023-06-22T04:20:02;101917.09;;;16.44;87.64
76694;BME280;69667;52.136;5.424;2023-06-22T04:22:30;101914.13;;;16.48;87.72
76694;BME280;69667;52.136;5.424;2023-06-22T04:24:58;101917.34;;;16.53;87.19
76694;BME280;69667;52.136;5.424;2023-06-22T04:27:27;101923.06;;;16.61;87.31
76694;BME280;69667;52.136;5.424;2023-06-22T04:29:55;101910.41;;;16.71;87.13
76694;BME280;69667;52.136;5.424;2023-06-22T04:32:32;101912.47;;;16.78;86.56
76694;BME280;69667;52.136;5.424;2023-06-22T04:35:05;101907.22;;;16.86;86.40
76694;BME280;69667;52.136;5.424;2023-06-22T04:37:33;101908.31;;;16.95;86.67
76694;BME280;69667;52.136;5.424;2023-06-22T04:40:03;101901.59;;;16.99;86.43
76694;BME280;69667;52.136;5.424;2023-06-22T04:42:39;101908.16;;;17.07;86.05
76694;BME280;69667;52.136;5.424;2023-06-22T04:45:32;101912.53;;;17.19;85.84
76694;BME280;69667;52.136;5.424;2023-06-22T04:47:59;101914.22;;;17.31;86.14
76694;BME280;69667;52.136;5.424;2023-06-22T04:50:26;101922.72;;;17.38;85.21
76694;BME280;69667;52.136;5.424;2023-06-22T04:52:53;101913.78;;;17.47;84.85
76694;BME280;69667;52.136;5.424;2023-06-22T04:55:20;101914.56;;;17.58;84.24
76694;BME280;69667;52.136;5.424;2023-06-22T04:57:48;101924.16;;;17.74;83.49
76694;BME280;69667;52.136;5.424;2023-06-22T05:00:16;101929.53;;;17.85;83.67
76694;BME280;69667;52.136;5.424;2023-06-22T05:02:45;101924.38;;;17.91;83.31
76694;BME280;69667;52.136;5.424;2023-06-22T05:05:13;101924.59;;;17.99;83.00
76694;BME280;69667;52.136;5.424;2023-06-22T05:07:44;101920.75;;;18.11;82.94
76694;BME280;69667;52.136;5.424;2023-06-22T05:10:12;101924.69;;;18.28;82.72
76694;BME280;69667;52.136;5.424;2023-06-22T05:12:40;101923.00;;;18.36;82.17
76694;BME280;69667;52.136;5.424;2023-06-22T05:15:08;101923.78;;;18.48;82.05
76694;BME280;69667;52.136;5.424;2023-06-22T05:17:36;101921.34;;;18.54;82.38
76694;BME280;69667;52.136;5.424;2023-06-22T05:20:09;101916.75;;;18.64;81.65
76694;BME280;69667;52.136;5.424;2023-06-22T05:22:36;101920.81;;;18.70;81.73
76694;BME280;69667;52.136;5.424;2023-06-22T05:25:04;101927.59;;;18.85;81.31
76694;BME280;69667;52.136;5.424;2023-06-22T05:27:32;101917.13;;;19.09;80.55
76694;BME280;69667;52.136;5.424;2023-06-22T05:29:59;101919.72;;;19.49;80.18
76694;BME280;69667;52.136;5.424;2023-06-22T05:32:34;101915.63;;;20.72;76.44
76694;BME280;69667;52.136;5.424;2023-06-22T05:35:09;101921.22;;;22.19;70.55
76694;BME280;69667;52.136;5.424;2023-06-22T05:37:59;101913.78;;;23.92;66.08
76694;BME280;69667;52.136;5.424;2023-06-22T05:40:46;101915.84;;;24.52;60.88
76694;BME280;69667;52.136;5.424;2023-06-22T05:43:22;101916.13;;;24.19;61.95
76694;BME280;69667;52.136;5.424;2023-06-22T05:45:51;101915.72;;;23.59;62.85
76694;BME280;69667;52.136;5.424;2023-06-22T05:48:22;101925.16;;;23.08;64.96
76694;BME280;69667;52.136;5.424;2023-06-22T05:50:59;101926.41;;;22.64;66.21
76694;BME280;69667;52.136;5.424;2023-06-22T05:53:29;101921.78;;;22.65;66.53
76694;BME280;69667;52.136;5.424;2023-06-22T05:55:58;101920.41;;;22.35;67.41
76694;BME280;69667;52.136;5.424;2023-06-22T05:58:27;101929.69;;;22.34;67.55
76694;BME280;69667;52.136;5.424;2023-06-22T06:00:57;101923.97;;;23.27;65.60
76694;BME280;69667;52.136;5.424;2023-06-22T06:03:27;101922.63;;;25.93;58.55
76694;BME280;69667;52.136;5.424;2023-06-22T06:05:57;101919.97;;;27.93;52.06
76694;BME280;69667;52.136;5.424;2023-06-22T06:08:27;101907.59;;;29.11;47.86
76694;BME280;69667;52.136;5.424;2023-06-22T06:10:54;101900.97;;;28.65;48.69
76694;BME280;69667;52.136;5.424;2023-06-22T06:16:14;101902.69;;;29.52;46.05
76694;BME280;69667;52.136;5.424;2023-06-22T06:18:41;101902.94;;;29.70;45.45
76694;BME280;69667;52.136;5.424;2023-06-22T06:21:07;101897.78;;;29.87;44.61
76694;BME280;69667;52.136;5.424;2023-06-22T06:23:34;101900.91;;;30.49;43.76
76694;BME280;69667;52.136;5.424;2023-06-22T06:26:00;101891.38;;;30.63;43.89
76694;BME280;69667;52.136;5.424;2023-06-22T06:28:27;101899.88;;;30.30;43.39
76694;BME280;69667;52.136;5.424;2023-06-22T06:30:54;101899.69;;;30.19;43.50
76694;BME280;69667;52.136;5.424;2023-06-22T06:33:20;101894.97;;;30.26;43.77
76694;BME280;69667;52.136;5.424;2023-06-22T06:35:50;101891.53;;;30.30;43.48
76694;BME280;69667;52.136;5.424;2023-06-22T06:38:17;101887.41;;;30.96;42.16
76694;BME280;69667;52.136;5.424;2023-06-22T06:40:43;101881.50;;;31.49;40.64
76694;BME280;69667;52.136;5.424;2023-06-22T06:43:11;101876.75;;;31.98;39.45
76694;BME280;69667;52.136;5.424;2023-06-22T06:45:38;101874.53;;;32.43;38.82
76694;BME280;69667;52.136;5.424;2023-06-22T06:48:05;101869.69;;;32.68;38.01
76694;BME280;69667;52.136;5.424;2023-06-22T06:50:32;101857.75;;;33.09;37.59
76694;BME280;69667;52.136;5.424;2023-06-22T06:52:59;101869.03;;;32.73;38.12
76694;BME280;69667;52.136;5.424;2023-06-22T06:55:25;101870.84;;;32.79;37.59
76694;BME280;69667;52.136;5.424;2023-06-22T06:57:52;101870.66;;;32.26;39.11
76694;BME280;69667;52.136;5.424;2023-06-22T07:00:20;101871.22;;;33.00;37.63
76694;BME280;69667;52.136;5.424;2023-06-22T07:02:47;101865.81;;;31.97;38.63
76694;BME280;69667;52.136;5.424;2023-06-22T07:05:15;101868.47;;;31.85;39.51
76694;BME280;69667;52.136;5.424;2023-06-22T07:07:42;101866.03;;;31.15;40.55
76694;BME280;69667;52.136;5.424;2023-06-22T07:10:10;101878.88;;;30.28;42.54
76694;BME280;69667;52.136;5.424;2023-06-22T07:12:36;101874.59;;;30.19;42.23
76694;BME280;69667;52.136;5.424;2023-06-22T07:15:04;101872.94;;;29.85;43.39
76694;BME280;69667;52.136;5.424;2023-06-22T07:17:32;101863.75;;;29.39;43.93
76694;BME280;69667;52.136;5.424;2023-06-22T07:19:58;101863.53;;;29.47;43.96
76694;BME280;69667;52.136;5.424;2023-06-22T07:22:25;101860.09;;;29.32;44.56
76694;BME280;69667;52.136;5.424;2023-06-22T07:24:52;101858.97;;;30.11;44.00
76694;BME280;69667;52.136;5.424;2023-06-22T07:27:18;101861.88;;;30.93;41.03
76694;BME280;69667;52.136;5.424;2023-06-22T07:29:46;101855.97;;;32.12;38.64
76694;BME280;69667;52.136;5.424;2023-06-22T07:32:13;101862.41;;;32.67;37.93
76694;BME280;69667;52.136;5.424;2023-06-22T07:34:42;101870.06;;;33.49;37.14
76694;BME280;69667;52.136;5.424;2023-06-22T07:37:10;101866.22;;;34.08;35.25
76694;BME280;69667;52.136;5.424;2023-06-22T07:39:36;101851.34;;;34.07;34.41
76694;BME280;69667;52.136;5.424;2023-06-22T07:42:04;101850.22;;;34.08;34.76
76694;BME280;69667;52.136;5.424;2023-06-22T07:44:31;101850.34;;;33.79;34.26
76694;BME280;69667;52.136;5.424;2023-06-22T07:46:57;101839.84;;;33.10;37.25
76694;BME280;69667;52.136;5.424;2023-06-22T07:49:24;101840.97;;;32.25;38.21
76694;BME280;69667;52.136;5.424;2023-06-22T07:51:50;101826.09;;;32.13;37.77
76694;BME280;69667;52.136;5.424;2023-06-22T07:54:17;101824.34;;;32.30;37.85
76694;BME280;69667;52.136;5.424;2023-06-22T07:56:46;101832.66;;;32.00;37.87
76694;BME280;69667;52.136;5.424;2023-06-22T07:59:12;101832.81;;;31.87;37.94
76694;BME280;69667;52.136;5.424;2023-06-22T08:01:42;101835.88;;;31.55;40.49
76694;BME280;69667;52.136;5.424;2023-06-22T08:04:08;101830.13;;;31.99;38.56
76694;BME280;69667;52.136;5.424;2023-06-22T08:06:35;101821.72;;;32.35;37.46
76694;BME280;69667;52.136;5.424;2023-06-22T08:09:02;101822.34;;;32.01;38.26
76694;BME280;69667;52.136;5.424;2023-06-22T08:11:29;101814.00;;;32.67;39.08
76694;BME280;69667;52.136;5.424;2023-06-22T08:13:56;101809.66;;;33.00;36.30
76694;BME280;69667;52.136;5.424;2023-06-22T08:16:25;101795.81;;;32.76;36.36
76694;BME280;69667;52.136;5.424;2023-06-22T08:18:51;101804.47;;;32.56;36.47
76694;BME280;69667;52.136;5.424;2023-06-22T08:21:18;101802.06;;;32.89;37.61
76694;BME280;69667;52.136;5.424;2023-06-22T08:23:45;101793.97;;;32.52;37.41
76694;BME280;69667;52.136;5.424;2023-06-22T08:26:11;101785.59;;;33.11;37.00
76694;BME280;69667;52.136;5.424;2023-06-22T08:28:38;101793.88;;;32.76;36.32
76694;BME280;69667;52.136;5.424;2023-06-22T08:31:04;101787.19;;;31.93;37.43
76694;BME280;69667;52.136;5.424;2023-06-22T08:33:31;101775.25;;;31.62;38.56
76694;BME280;69667;52.136;5.424;2023-06-22T08:35:58;101776.00;;;31.93;39.18
76694;BME280;69667;52.136;5.424;2023-06-22T08:38:25;101769.91;;;32.03;37.37
76694;BME280;69667;52.136;5.424;2023-06-22T08:40:52;101772.47;;;31.80;38.63
76694;BME280;69667;52.136;5.424;2023-06-22T08:43:19;101770.75;;;31.43;38.81
76694;BME280;69667;52.136;5.424;2023-06-22T08:45:45;101765.31;;;31.48;38.26
76694;BME280;69667;52.136;5.424;2023-06-22T08:48:12;101759.72;;;31.48;37.27
76694;BME280;69667;52.136;5.424;2023-06-22T08:50:39;101764.13;;;31.37;37.21
76694;BME280;69667;52.136;5.424;2023-06-22T08:53:07;101754.47;;;31.58;37.46
76694;BME280;69667;52.136;5.424;2023-06-22T08:55:34;101754.63;;;31.63;37.19
76694;BME280;69667;52.136;5.424;2023-06-22T08:58:00;101757.44;;;31.81;38.23
76694;BME280;69667;52.136;5.424;2023-06-22T09:00:27;101758.25;;;32.06;35.22
76694;BME280;69667;52.136;5.424;2023-06-22T09:02:55;101755.31;;;31.76;35.96
76694;BME280;69667;52.136;5.424;2023-06-22T09:05:25;101754.91;;;31.55;36.43
76694;BME280;69667;52.136;5.424;2023-06-22T09:07:53;101755.16;;;31.53;37.39
76694;BME280;69667;52.136;5.424;2023-06-22T09:10:22;101756.75;;;31.18;36.92
76694;BME280;69667;52.136;5.424;2023-06-22T09:12:49;101753.13;;;31.18;37.02
76694;BME280;69667;52.136;5.424;2023-06-22T09:15:16;101753.25;;;30.98;35.97
76694;BME280;69667;52.136;5.424;2023-06-22T09:17:44;101759.13;;;31.15;36.70
76694;BME280;69667;52.136;5.424;2023-06-22T09:20:13;101759.66;;;31.05;37.12
76694;BME280;69667;52.136;5.424;2023-06-22T09:22:40;101746.31;;;31.32;38.71
76694;BME280;69667;52.136;5.424;2023-06-22T09:25:07;101742.75;;;31.67;37.21
76694;BME280;69667;52.136;5.424;2023-06-22T09:27:34;101749.31;;;31.37;36.16
76694;BME280;69667;52.136;5.424;2023-06-22T09:30:00;101753.22;;;31.72;35.61
76694;BME280;69667;52.136;5.424;2023-06-22T09:32:27;101749.78;;;31.52;35.33
76694;BME280;69667;52.136;5.424;2023-06-22T09:34:54;101752.84;;;31.68;34.13
76694;BME280;69667;52.136;5.424;2023-06-22T09:37:21;101744.91;;;32.08;34.62
76694;BME280;69667;52.136;5.424;2023-06-22T09:39:48;101750.91;;;32.23;36.24
76694;BME280;69667;52.136;5.424;2023-06-22T09:42:14;101748.41;;;32.33;35.67
76694;BME280;69667;52.136;5.424;2023-06-22T09:44:41;101738.91;;;32.52;34.00
76694;BME280;69667;52.136;5.424;2023-06-22T09:47:08;101739.34;;;32.67;33.60
76694;BME280;69667;52.136;5.424;2023-06-22T09:49:34;101742.75;;;32.22;34.71
76694;BME280;69667;52.136;5.424;2023-06-22T09:52:13;101735.31;;;31.79;34.24
76694;BME280;69667;52.136;5.424;2023-06-22T09:54:39;101739.72;;;31.26;34.75
76694;BME280;69667;52.136;5.424;2023-06-22T09:57:06;101740.00;;;30.62;37.82
76694;BME280;69667;52.136;5.424;2023-06-22T09:59:33;101744.34;;;30.01;38.71
76694;BME280;69667;52.136;5.424;2023-06-22T10:01:59;101741.03;;;29.60;39.29
76694;BME280;69667;52.136;5.424;2023-06-22T10:04:26;101745.81;;;29.33;39.34
76694;BME280;69667;52.136;5.424;2023-06-22T10:06:54;101739.81;;;29.10;41.70
76694;BME280;69667;52.136;5.424;2023-06-22T10:09:20;101745.75;;;28.88;41.50
76694;BME280;69667;52.136;5.424;2023-06-22T10:11:48;101748.31;;;28.63;40.61
76694;BME280;69667;52.136;5.424;2023-06-22T10:14:14;101749.66;;;28.20;42.92
76694;BME280;69667;52.136;5.424;2023-06-22T10:16:41;101741.22;;;27.94;41.40
76694;BME280;69667;52.136;5.424;2023-06-22T10:19:08;101734.91;;;27.72;42.57
76694;BME280;69667;52.136;5.424;2023-06-22T10:21:35;101736.84;;;27.78;42.13
76694;BME280;69667;52.136;5.424;2023-06-22T10:24:02;101735.28;;;27.69;42.21
76694;BME280;69667;52.136;5.424;2023-06-22T10:26:33;101735.47;;;27.61;42.37
76694;BME280;69667;52.136;5.424;2023-06-22T10:29:00;101737.34;;;27.54;43.24
76694;BME280;69667;52.136;5.424;2023-06-22T10:31:42;101738.78;;;27.44;43.42
76694;BME280;69667;52.136;5.424;2023-06-22T10:34:09;101747.84;;;27.31;43.22
76694;BME280;69667;52.136;5.424;2023-06-22T10:36:35;101744.13;;;27.24;43.61
76694;BME280;69667;52.136;5.424;2023-06-22T10:39:02;101736.22;;;27.21;44.27
76694;BME280;69667;52.136;5.424;2023-06-22T10:41:29;101745.00;;;27.24;43.96
76694;BME280;69667;52.136;5.424;2023-06-22T10:43:57;101735.25;;;27.07;44.91
76694;BME280;69667;52.136;5.424;2023-06-22T10:46:25;101743.81;;;27.12;45.25
76694;BME280;69667;52.136;5.424;2023-06-22T10:48:52;101745.75;;;27.12;46.00
76694;BME280;69667;52.136;5.424;2023-06-22T10:51:21;101740.84;;;27.14;44.35
76694;BME280;69667;52.136;5.424;2023-06-22T10:53:48;101740.06;;;27.20;44.25
76694;BME280;69667;52.136;5.424;2023-06-22T10:56:14;101736.97;;;27.29;43.89
76694;BME280;69667;52.136;5.424;2023-06-22T10:58:41;101736.34;;;27.34;43.67
76694;BME280;69667;52.136;5.424;2023-06-22T11:01:08;101739.94;;;27.28;44.28
76694;BME280;69667;52.136;5.424;2023-06-22T11:03:45;101738.75;;;27.37;44.44
76694;BME280;69667;52.136;5.424;2023-06-22T11:06:12;101737.41;;;27.33;44.69
76694;BME280;69667;52.136;5.424;2023-06-22T11:08:38;101737.22;;;27.34;44.70
76694;BME280;69667;52.136;5.424;2023-06-22T11:11:09;101736.94;;;27.57;44.70
76694;BME280;69667;52.136;5.424;2023-06-22T11:13:35;101728.69;;;27.70;44.41
76694;BME280;69667;52.136;5.424;2023-06-22T11:16:02;101724.28;;;27.82;43.94
76694;BME280;69667;52.136;5.424;2023-06-22T11:18:29;101721.81;;;27.94;44.63
76694;BME280;69667;52.136;5.424;2023-06-22T11:20:57;101725.84;;;27.98;43.92
76694;BME280;69667;52.136;5.424;2023-06-22T11:23:24;101718.19;;;28.00;43.27
76694;BME280;69667;52.136;5.424;2023-06-22T11:25:53;101717.50;;;27.91;45.09
76694;BME280;69667;52.136;5.424;2023-06-22T11:28:20;101717.50;;;27.91;46.48
76694;BME280;69667;52.136;5.424;2023-06-22T11:30:46;101716.28;;;28.07;47.31
76694;BME280;69667;52.136;5.424;2023-06-22T11:33:13;101708.41;;;28.17;46.97
76694;BME280;69667;52.136;5.424;2023-06-22T11:35:39;101705.63;;;28.10;47.13
76694;BME280;69667;52.136;5.424;2023-06-22T11:38:06;101709.25;;;28.11;49.40
76694;BME280;69667;52.136;5.424;2023-06-22T11:40:34;101705.00;;;28.21;47.92
76694;BME280;69667;52.136;5.424;2023-06-22T11:43:00;101698.19;;;28.17;46.69
76694;BME280;69667;52.136;5.424;2023-06-22T11:45:27;101696.88;;;28.13;50.39
76694;BME280;69667;52.136;5.424;2023-06-22T11:47:53;101684.66;;;28.01;48.24
76694;BME280;69667;52.136;5.424;2023-06-22T11:50:23;101685.31;;;28.10;47.95
76694;BME280;69667;52.136;5.424;2023-06-22T11:52:49;101681.06;;;28.14;48.98
76694;BME280;69667;52.136;5.424;2023-06-22T11:55:17;101690.91;;;28.16;45.80
76694;BME280;69667;52.136;5.424;2023-06-22T11:57:55;101685.13;;;28.11;47.47
76694;BME280;69667;52.136;5.424;2023-06-22T12:00:22;101677.66;;;28.12;48.28
76694;BME280;69667;52.136;5.424;2023-06-22T12:02:55;101677.41;;;28.00;48.27
76694;BME280;69667;52.136;5.424;2023-06-22T12:05:26;101676.25;;;27.88;48.15
76694;BME280;69667;52.136;5.424;2023-06-22T12:07:53;101681.28;;;27.65;48.55
76694;BME280;69667;52.136;5.424;2023-06-22T12:10:22;101680.28;;;27.38;48.70
76694;BME280;69667;52.136;5.424;2023-06-22T12:12:49;101680.72;;;27.42;48.79
76694;BME280;69667;52.136;5.424;2023-06-22T12:15:16;101678.81;;;27.49;51.03
76694;BME280;69667;52.136;5.424;2023-06-22T12:17:42;101672.75;;;27.32;48.35
76694;BME280;69667;52.136;5.424;2023-06-22T12:20:10;101680.72;;;27.14;49.26
76694;BME280;69667;52.136;5.424;2023-06-22T12:22:36;101674.72;;;27.11;50.01
76694;BME280;69667;52.136;5.424;2023-06-22T12:25:07;101677.09;;;27.14;49.39
76694;BME280;69667;52.136;5.424;2023-06-22T12:27:35;101675.50;;;26.98;51.18
76694;BME280;69667;52.136;5.424;2023-06-22T12:30:02;101674.94;;;26.82;54.08
76694;BME280;69667;52.136;5.424;2023-06-22T12:32:29;101668.34;;;26.62;53.86
76694;BME280;69667;52.136;5.424;2023-06-22T12:34:56;101667.69;;;26.39;55.89
76694;BME280;69667;52.136;5.424;2023-06-22T12:37:23;101658.53;;;26.17;54.85
76694;BME280;69667;52.136;5.424;2023-06-22T12:39:49;101659.53;;;25.95;55.85
76694;BME280;69667;52.136;5.424;2023-06-22T12:42:16;101660.47;;;25.87;58.98
76694;BME280;69667;52.136;5.424;2023-06-22T12:44:43;101659.44;;;25.88;55.47
76694;BME280;69667;52.136;5.424;2023-06-22T12:47:09;101651.72;;;25.84;55.74
76694;BME280;69667;52.136;5.424;2023-06-22T12:49:36;101650.81;;;25.77;54.68
76694;BME280;69667;52.136;5.424;2023-06-22T12:52:08;101657.56;;;25.74;54.27
76694;BME280;69667;52.136;5.424;2023-06-22T12:54:35;101651.84;;;25.76;54.31
76694;BME280;69667;52.136;5.424;2023-06-22T12:57:19;101650.31;;;25.73;53.94
76694;BME280;69667;52.136;5.424;2023-06-22T12:59:46;101645.34;;;25.69;53.68
76694;BME280;69667;52.136;5.424;2023-06-22T13:02:12;101648.50;;;25.66;53.79
76694;BME280;69667;52.136;5.424;2023-06-22T13:04:40;101649.00;;;25.69;53.45
76694;BME280;69667;52.136;5.424;2023-06-22T13:07:09;101646.13;;;25.63;53.57